Time;durP1;ratioP1;P1;durP2;ratioP2;P2;SDS_P1;SDS_P2;PMS_P1;PMS_P2;Temp;Humidity;BMP_temperature;BMP_pressure;BME280_temperature;BME280_humidity;BME280_pressure;Samples;Min_cycle;Max_cycle;Signal;HPM_P1;HPM_P2
2023/02/03 00:01:25;;;;;;;45.83;42.70;;;9.00;99.90;;;;;;4999613;28;20456;-83
2023/02/03 00:03:51;;;;;;;48.67;46.03;;;9.10;99.90;;;;;;4999014;28;20486;-84
2023/02/03 00:06:18;;;;;;;53.67;51.20;;;9.10;99.90;;;;;;4999299;28;20457;-84
2023/02/03 00:08:45;;;;;;;56.33;53.30;;;9.10;99.90;;;;;;5003070;28;20470;-83
2023/02/03 00:11:12;;;;;;;54.27;51.73;;;9.00;99.90;;;;;;5003504;28;20461;-84
2023/02/03 00:13:39;;;;;;;63.50;60.10;;;9.00;99.90;;;;;;5002902;28;20485;-83
2023/02/03 00:16:07;;;;;;;68.73;64.70;;;9.00;99.90;;;;;;5003435;28;20457;-83
2023/02/03 00:18:34;;;;;;;74.57;70.33;;;8.90;99.90;;;;;;5003374;28;20477;-84
2023/02/03 00:21:01;;;;;;;74.27;70.97;;;8.90;99.90;;;;;;5002893;28;20459;-84
2023/02/03 00:23:30;;;;;;;70.93;67.13;;;8.90;99.90;;;;;;5002957;28;20457;-84
2023/02/03 00:25:57;;;;;;;67.67;64.87;;;8.90;99.90;;;;;;5003007;28;20473;-84
2023/02/03 00:28:27;;;;;;;63.83;60.47;;;8.90;99.90;;;;;;5002716;28;20477;-84
2023/02/03 00:30:53;;;;;;;60.10;57.40;;;8.90;99.90;;;;;;5003206;28;20491;-84
2023/02/03 00:33:21;;;;;;;60.23;57.13;;;8.90;99.90;;;;;;5002990;28;21000;-85
2023/02/03 00:35:48;;;;;;;68.47;65.17;;;8.90;99.90;;;;;;5002965;28;20806;-84
2023/02/03 00:38:16;;;;;;;60.37;57.57;;;8.90;99.90;;;;;;5002083;28;20504;-84
2023/02/03 00:40:42;;;;;;;49.77;46.90;;;8.90;99.90;;;;;;5002273;28;20455;-84
2023/02/03 00:43:09;;;;;;;51.50;49.00;;;9.00;99.90;;;;;;5002227;28;20465;-85
2023/02/03 00:45:36;;;;;;;46.67;44.40;;;9.00;99.90;;;;;;5002657;28;20462;-84
2023/02/03 00:48:03;;;;;;;48.10;45.50;;;9.00;99.90;;;;;;5003079;28;20489;-84
2023/02/03 00:50:31;;;;;;;47.13;44.83;;;8.90;99.90;;;;;;5002382;28;20549;-84
2023/02/03 00:52:58;;;;;;;46.20;43.80;;;9.00;99.90;;;;;;5002679;28;20457;-84
2023/02/03 00:55:25;;;;;;;50.00;46.93;;;8.90;99.90;;;;;;5002569;28;21021;-84
2023/02/03 00:57:52;;;;;;;45.70;42.80;;;8.90;99.90;;;;;;5002058;28;20485;-85
2023/02/03 01:00:19;;;;;;;40.37;37.07;;;9.00;99.90;;;;;;5002348;28;20987;-84
2023/02/03 01:02:46;;;;;;;35.30;33.30;;;9.00;99.90;;;;;;5001838;28;20474;-84
2023/02/03 01:05:13;;;;;;;34.10;31.33;;;8.90;99.90;;;;;;5002294;28;20450;-84
2023/02/03 01:07:41;;;;;;;35.53;33.70;;;9.00;99.90;;;;;;5002344;28;20477;-84
2023/02/03 01:10:09;;;;;;;33.27;31.27;;;9.00;99.90;;;;;;5001952;28;20480;-84
2023/02/03 01:12:36;;;;;;;29.93;27.83;;;9.00;99.90;;;;;;5001699;28;20453;-84
2023/02/03 01:15:03;;;;;;;31.70;29.70;;;9.00;99.90;;;;;;5001763;28;20485;-84
2023/02/03 01:17:30;;;;;;;29.90;28.10;;;9.00;99.90;;;;;;5002067;28;20838;-84
2023/02/03 01:19:56;;;;;;;27.70;26.27;;;9.00;99.90;;;;;;5001604;28;20805;-85
2023/02/03 01:22:23;;;;;;;31.90;28.90;;;9.00;99.90;;;;;;5001812;28;20973;-84
2023/02/03 01:24:51;;;;;;;30.13;28.03;;;9.00;99.90;;;;;;5001575;28;20450;-84
2023/02/03 01:27:18;;;;;;;31.07;28.87;;;9.10;99.90;;;;;;5001804;28;20458;-85
2023/02/03 01:29:45;;;;;;;28.63;26.23;;;9.10;99.90;;;;;;5002092;28;20466;-84
2023/02/03 01:32:11;;;;;;;26.93;24.83;;;9.10;99.90;;;;;;5001888;28;20462;-85
2023/02/03 01:34:38;;;;;;;25.97;24.07;;;9.10;99.90;;;;;;5001777;28;20484;-85
2023/02/03 01:37:05;;;;;;;25.77;23.97;;;9.10;99.90;;;;;;5001980;28;20461;-84
2023/02/03 01:39:32;;;;;;;26.03;24.13;;;9.10;99.90;;;;;;5002371;28;20485;-85
2023/02/03 01:42:00;;;;;;;23.17;21.40;;;9.10;99.90;;;;;;5001768;28;20463;-84
2023/02/03 01:44:40;;;;;;;23.10;20.90;;;9.20;99.90;;;;;;5001278;28;20476;-84
2023/02/03 01:47:23;;;;;;;23.10;21.20;;;9.20;99.90;;;;;;5001875;28;20458;-84
2023/02/03 01:49:54;;;;;;;25.40;23.70;;;9.10;99.90;;;;;;5001044;28;20461;-84
2023/02/03 01:52:22;;;;;;;26.43;24.33;;;9.00;99.90;;;;;;5001316;28;20957;-83
2023/02/03 01:54:52;;;;;;;26.83;25.20;;;9.10;99.90;;;;;;5001608;28;20478;-85
2023/02/03 01:57:24;;;;;;;24.13;22.23;;;9.00;99.90;;;;;;5001274;28;20948;-85
2023/02/03 01:59:54;;;;;;;25.63;24.07;;;9.10;99.90;;;;;;5001091;28;20464;-84
2023/02/03 02:02:21;;;;;;;25.50;23.50;;;9.00;99.90;;;;;;5002005;28;20456;-84
2023/02/03 02:04:55;;;;;;;22.20;20.50;;;9.10;99.90;;;;;;5001337;28;20461;-85
2023/02/03 02:07:22;;;;;;;23.30;21.80;;;9.10;99.90;;;;;;5001520;28;20454;-84
2023/02/03 02:09:50;;;;;;;23.73;21.60;;;9.00;99.90;;;;;;5000829;28;20461;-84
2023/02/03 02:12:17;;;;;;;22.70;21.20;;;9.20;99.90;;;;;;5001340;28;20462;-86
2023/02/03 02:14:47;;;;;;;22.93;21.20;;;9.10;99.90;;;;;;5001182;28;20517;-84
2023/02/03 02:17:26;;;;;;;20.07;18.63;;;9.10;99.90;;;;;;5001710;28;20458;-80
2023/02/03 02:20:46;;;;;;;18.40;17.30;;;9.00;99.90;;;;;;5001233;28;20441;-82
2023/02/03 02:23:41;;;;;;;22.93;19.33;;;9.10;99.90;;;;;;4957184;29;20448;-82
2023/02/03 02:26:43;;;;;;;22.63;21.10;;;9.10;99.90;;;;;;4999060;28;20454;-82
2023/02/03 02:29:47;;;;;;;23.50;21.50;;;9.10;99.90;;;;;;4998942;28;20481;-84
2023/02/03 02:32:25;;;;;;;20.17;18.43;;;9.10;99.90;;;;;;4970288;28;20826;-84
2023/02/03 02:35:01;;;;;;;21.10;19.60;;;9.10;99.90;;;;;;5001175;28;20493;-84
2023/02/03 02:37:37;;;;;;;19.83;18.50;;;9.00;99.90;;;;;;5001047;28;20458;-83
2023/02/03 02:40:14;;;;;;;21.50;19.90;;;9.10;99.90;;;;;;5001354;28;20858;-84
2023/02/03 02:42:51;;;;;;;22.40;20.60;;;9.10;99.90;;;;;;5000628;28;20481;-83
2023/02/03 02:45:25;;;;;;;24.60;23.00;;;9.10;99.90;;;;;;5001253;28;20435;-83
2023/02/03 02:47:56;;;;;;;25.83;24.17;;;9.00;99.90;;;;;;5001296;28;20485;-84
2023/02/03 02:50:24;;;;;;;32.03;29.17;;;8.90;99.90;;;;;;5001244;28;20529;-83
2023/02/03 02:52:53;;;;;;;35.50;33.70;;;8.90;99.90;;;;;;5000874;28;20493;-84
2023/02/03 02:55:24;;;;;;;40.33;37.90;;;8.80;99.90;;;;;;5001607;28;20478;-84
2023/02/03 02:57:53;;;;;;;41.30;39.10;;;8.90;99.90;;;;;;5000786;28;20537;-83
2023/02/03 03:00:20;;;;;;;36.90;34.47;;;8.80;99.90;;;;;;5000702;28;20470;-84
2023/02/03 03:02:47;;;;;;;36.03;34.00;;;8.90;99.90;;;;;;5000448;28;20799;-83
2023/02/03 03:05:17;;;;;;;36.80;34.70;;;9.00;99.90;;;;;;5000533;28;20481;-84
2023/02/03 03:08:31;;;;;;;34.30;32.10;;;9.00;99.90;;;;;;5001112;28;20469;-83
2023/02/03 03:11:01;;;;;;;27.97;26.13;;;8.90;99.90;;;;;;4999854;28;20949;-83
2023/02/03 03:13:32;;;;;;;28.60;26.40;;;9.00;99.90;;;;;;5000491;28;20465;-84
2023/02/03 03:16:02;;;;;;;26.50;24.90;;;9.00;99.90;;;;;;5000257;28;20474;-83
2023/02/03 03:18:32;;;;;;;26.20;24.40;;;9.00;99.90;;;;;;5001338;28;20921;-84
2023/02/03 03:21:05;;;;;;;27.17;25.57;;;9.00;99.90;;;;;;5000667;28;20461;-84
2023/02/03 03:23:38;;;;;;;24.07;22.47;;;8.90;99.90;;;;;;4999860;28;20460;-83
2023/02/03 03:26:11;;;;;;;24.30;22.30;;;9.00;99.90;;;;;;5000229;28;20458;-83
2023/02/03 03:28:45;;;;;;;27.53;25.83;;;9.00;99.90;;;;;;5001025;28;20470;-84
2023/02/03 03:31:12;;;;;;;22.97;21.17;;;9.00;99.90;;;;;;4999905;28;20458;-84
2023/02/03 03:33:40;;;;;;;25.13;23.40;;;9.00;99.90;;;;;;4999975;28;20464;-84
2023/02/03 03:36:16;;;;;;;24.77;22.83;;;9.00;99.90;;;;;;5000654;28;20481;-84
2023/02/03 03:38:46;;;;;;;22.53;20.70;;;9.00;99.90;;;;;;5000437;28;20479;-83
2023/02/03 03:41:19;;;;;;;21.37;19.73;;;9.00;99.90;;;;;;5000329;28;20458;-83
2023/02/03 03:43:48;;;;;;;20.17;18.47;;;9.00;99.90;;;;;;5000806;28;20453;-84
2023/02/03 03:46:19;;;;;;;17.47;16.33;;;9.10;99.90;;;;;;5000445;28;20446;-83
2023/02/03 03:48:52;;;;;;;17.80;16.27;;;9.00;99.90;;;;;;4999662;28;20482;-83
2023/02/03 03:51:26;;;;;;;18.60;15.57;;;9.00;99.90;;;;;;4999841;28;20528;-84
2023/02/03 03:53:56;;;;;;;16.17;15.07;;;9.10;99.90;;;;;;5000296;28;20445;-84
2023/02/03 03:56:27;;;;;;;16.47;14.20;;;9.10;99.90;;;;;;4999777;28;20482;-84
2023/02/03 03:58:54;;;;;;;15.83;14.10;;;9.10;99.90;;;;;;4999773;28;20477;-84
2023/02/03 04:01:22;;;;;;;14.10;12.70;;;9.00;99.90;;;;;;4999582;28;20468;-84
2023/02/03 04:03:52;;;;;;;13.90;10.90;;;9.10;99.90;;;;;;4999634;28;20518;-84
2023/02/03 04:06:20;;;;;;;16.37;12.13;;;9.10;99.90;;;;;;5000293;28;20518;-85
2023/02/03 04:08:47;;;;;;;13.20;10.87;;;9.00;99.90;;;;;;4999974;28;20474;-83
2023/02/03 04:11:59;;;;;;;15.33;10.77;;;9.10;99.90;;;;;;4999032;28;20453;-84
2023/02/03 04:14:01;;;;;;;10.27;9.27;;;9.10;99.90;;;;;;5000261;28;20493;-83
2023/02/03 04:16:28;;;;;;;16.80;10.20;;;9.20;99.90;;;;;;4999614;28;20488;-84
2023/02/03 04:18:55;;;;;;;12.73;8.83;;;9.10;99.90;;;;;;4999739;28;20470;-83
2023/02/03 04:21:23;;;;;;;9.20;8.20;;;9.10;99.90;;;;;;4999739;28;20460;-82
2023/02/03 04:23:51;;;;;;;10.43;9.50;;;9.10;99.90;;;;;;4998869;28;20841;-84
2023/02/03 04:26:17;;;;;;;9.50;8.70;;;9.10;99.90;;;;;;5000207;28;20594;-84
2023/02/03 04:28:44;;;;;;;11.60;8.33;;;9.10;99.90;;;;;;4999839;28;20474;-84
2023/02/03 04:31:11;;;;;;;15.40;9.40;;;9.10;99.90;;;;;;4999437;28;20465;-84
2023/02/03 04:33:38;;;;;;;10.33;9.03;;;9.10;99.90;;;;;;4999738;28;20464;-84
2023/02/03 04:36:05;;;;;;;9.40;8.60;;;9.10;99.90;;;;;;4998616;28;20470;-84
2023/02/03 04:38:33;;;;;;;9.17;8.13;;;9.20;99.90;;;;;;4998945;28;21002;-84
2023/02/03 04:41:00;;;;;;;13.20;9.33;;;9.10;99.90;;;;;;4999231;28;20454;-84
2023/02/03 04:43:26;;;;;;;11.50;9.00;;;9.20;99.90;;;;;;4999656;28;20457;-84
2023/02/03 04:45:53;;;;;;;11.50;9.17;;;9.10;99.90;;;;;;4999690;28;20445;-84
2023/02/03 04:48:20;;;;;;;11.30;9.43;;;9.10;99.90;;;;;;4999857;28;20484;-84
2023/02/03 04:50:47;;;;;;;12.73;8.60;;;9.10;99.90;;;;;;4999527;28;20828;-84
2023/02/03 04:53:13;;;;;;;9.60;8.63;;;9.20;99.90;;;;;;4999736;28;20453;-84
2023/02/03 04:55:41;;;;;;;9.43;8.63;;;9.20;99.90;;;;;;5003294;28;20490;-84
2023/02/03 04:58:09;;;;;;;15.43;9.23;;;9.10;99.90;;;;;;5003039;28;20474;-84
2023/02/03 05:00:36;;;;;;;10.03;9.10;;;9.10;99.90;;;;;;5002729;28;20477;-84
2023/02/03 05:03:02;;;;;;;10.77;9.70;;;9.10;99.90;;;;;;5003202;28;20530;-84
2023/02/03 05:05:29;;;;;;;10.50;9.50;;;9.10;99.90;;;;;;5002901;28;20461;-83
2023/02/03 05:07:56;;;;;;;10.90;9.00;;;9.10;99.90;;;;;;5002167;28;20481;-84
2023/02/03 05:10:22;;;;;;;11.03;9.00;;;9.10;99.90;;;;;;5002163;28;20462;-83
2023/02/03 05:12:51;;;;;;;8.97;8.17;;;9.10;99.90;;;;;;5002542;28;20454;-84
2023/02/03 05:15:17;;;;;;;17.20;9.50;;;9.10;99.90;;;;;;5003742;28;20477;-84
2023/02/03 05:17:44;;;;;;;15.23;8.50;;;9.20;99.90;;;;;;5002454;28;20833;-84
2023/02/03 05:20:12;;;;;;;14.57;9.33;;;9.10;99.90;;;;;;5003172;28;20454;-85
2023/02/03 05:22:39;;;;;;;10.10;7.80;;;9.10;99.90;;;;;;5002572;28;20948;-83
2023/02/03 05:25:06;;;;;;;8.50;7.70;;;9.10;99.90;;;;;;5001912;28;20449;-83
2023/02/03 05:27:33;;;;;;;11.67;7.60;;;9.20;99.90;;;;;;5002914;28;20470;-84
2023/02/03 05:30:01;;;;;;;15.30;8.33;;;9.10;99.90;;;;;;5004098;28;20458;-84
2023/02/03 05:32:28;;;;;;;14.87;7.97;;;9.10;99.90;;;;;;5002418;28;20464;-83
2023/02/03 05:34:55;;;;;;;8.90;8.00;;;9.10;99.90;;;;;;5001919;28;20474;-83
2023/02/03 05:37:21;;;;;;;7.67;6.97;;;9.20;99.90;;;;;;5002489;28;20481;-83
2023/02/03 05:39:48;;;;;;;12.90;7.77;;;9.10;99.90;;;;;;5002377;28;20481;-83
2023/02/03 05:42:14;;;;;;;12.40;6.67;;;9.10;99.90;;;;;;5001307;28;20457;-84
2023/02/03 05:44:41;;;;;;;12.50;8.00;;;9.10;99.90;;;;;;5001756;28;20462;-83
2023/02/03 05:47:09;;;;;;;8.30;7.50;;;9.10;99.90;;;;;;5000967;28;20209;-83
2023/02/03 05:49:36;;;;;;;11.27;7.47;;;9.10;99.90;;;;;;5002228;28;20477;-83
2023/02/03 05:52:03;;;;;;;12.60;7.57;;;9.10;99.90;;;;;;5002150;28;20458;-82
2023/02/03 05:54:30;;;;;;;11.93;8.97;;;9.10;99.90;;;;;;5002744;28;20961;-84
2023/02/03 05:56:57;;;;;;;9.30;6.20;;;9.00;99.90;;;;;;5002393;28;21044;-83
2023/02/03 05:59:23;;;;;;;6.47;5.57;;;9.10;99.90;;;;;;5001681;28;20482;-84
2023/02/03 06:01:50;;;;;;;10.73;5.70;;;9.10;99.90;;;;;;5002552;28;20462;-83
2023/02/03 06:04:18;;;;;;;6.97;6.27;;;9.10;99.90;;;;;;5001298;28;20465;-84
2023/02/03 06:06:46;;;;;;;8.47;5.73;;;9.10;99.90;;;;;;5000809;28;20614;-84
2023/02/03 06:09:13;;;;;;;8.00;5.93;;;9.10;99.90;;;;;;5002129;28;20977;-84
2023/02/03 06:11:41;;;;;;;7.13;5.70;;;9.10;99.90;;;;;;5001668;28;20466;-83
2023/02/03 06:14:08;;;;;;;11.10;5.70;;;9.10;99.90;;;;;;5001900;28;20482;-84
2023/02/03 06:16:35;;;;;;;5.80;4.03;;;9.20;99.90;;;;;;5001072;28;20478;-83
2023/02/03 06:19:01;;;;;;;7.07;5.40;;;9.10;99.90;;;;;;5001575;28;20482;-84
2023/02/03 06:21:29;;;;;;;9.20;5.20;;;9.10;99.90;;;;;;5001163;28;20467;-83
2023/02/03 06:23:56;;;;;;;10.80;4.80;;;9.10;99.90;;;;;;5000617;28;20446;-83
2023/02/03 06:26:23;;;;;;;15.30;4.80;;;9.10;99.90;;;;;;5001868;28;20457;-84
2023/02/03 06:28:50;;;;;;;6.27;5.20;;;9.20;99.90;;;;;;5001164;28;20545;-83
2023/02/03 06:31:17;;;;;;;6.33;4.70;;;9.10;99.90;;;;;;5000994;28;20458;-83
2023/02/03 06:33:44;;;;;;;8.17;6.10;;;9.10;99.90;;;;;;5001796;28;20956;-83
2023/02/03 06:36:10;;;;;;;9.03;4.50;;;9.10;99.90;;;;;;5001564;28;20489;-83
2023/02/03 06:38:38;;;;;;;13.00;5.73;;;9.10;99.90;;;;;;5000665;28;20470;-83
2023/02/03 06:41:14;;;;;;;6.93;4.40;;;9.10;99.90;;;;;;5001625;28;20458;-84
2023/02/03 06:43:41;;;;;;;4.77;4.13;;;9.10;99.90;;;;;;5000943;28;20442;-84
2023/02/03 06:46:08;;;;;;;7.00;4.23;;;9.20;99.90;;;;;;5001361;28;20476;-83
2023/02/03 06:48:34;;;;;;;7.57;4.17;;;9.10;99.90;;;;;;4999757;28;20478;-83
2023/02/03 06:51:01;;;;;;;9.33;4.23;;;9.10;99.90;;;;;;5000955;28;20450;-84
2023/02/03 06:53:28;;;;;;;7.27;4.70;;;9.10;99.90;;;;;;4999909;28;20454;-83
2023/02/03 06:55:56;;;;;;;9.13;5.70;;;9.10;99.90;;;;;;4999468;28;20481;-83
2023/02/03 06:58:22;;;;;;;8.20;4.10;;;9.20;99.90;;;;;;5001301;28;20472;-83
2023/02/03 07:00:50;;;;;;;6.13;4.00;;;9.10;99.90;;;;;;5000686;28;20466;-84
2023/02/03 07:03:16;;;;;;;4.63;3.57;;;9.20;99.90;;;;;;5001032;28;20454;-84
2023/02/03 07:05:43;;;;;;;8.17;3.00;;;9.20;99.90;;;;;;5001671;28;20457;-84
2023/02/03 07:08:10;;;;;;;6.30;3.57;;;9.20;99.90;;;;;;5000955;28;20474;-83
2023/02/03 07:10:37;;;;;;;7.20;3.10;;;9.30;99.90;;;;;;5000520;28;20461;-83
2023/02/03 07:13:06;;;;;;;5.20;3.50;;;9.30;99.90;;;;;;5000189;28;20987;-83
2023/02/03 07:15:33;;;;;;;9.33;4.53;;;9.20;99.90;;;;;;5000215;28;20489;-84
2023/02/03 07:17:59;;;;;;;5.37;3.00;;;9.20;99.90;;;;;;4998901;28;20485;-84
2023/02/03 07:20:27;;;;;;;8.03;3.50;;;9.30;99.90;;;;;;4999746;28;20461;-83
2023/02/03 07:22:55;;;;;;;8.73;3.47;;;9.30;99.90;;;;;;4999795;28;20545;-84
2023/02/03 07:25:23;;;;;;;10.27;3.70;;;9.20;99.90;;;;;;4999438;28;20459;-82
2023/02/03 07:27:49;;;;;;;12.67;3.00;;;9.20;99.90;;;;;;4998745;28;20479;-83
2023/02/03 07:30:18;;;;;;;5.63;2.60;;;9.30;99.90;;;;;;4999391;28;20450;-83
2023/02/03 07:32:48;;;;;;;13.53;3.53;;;9.30;99.90;;;;;;4999047;28;20813;-82
2023/02/03 07:35:15;;;;;;;7.70;3.30;;;9.30;99.90;;;;;;4999776;28;20462;-83
2023/02/03 07:37:42;;;;;;;6.17;2.83;;;9.30;99.90;;;;;;4999259;28;20580;-83
2023/02/03 07:40:10;;;;;;;6.70;3.37;;;9.30;99.90;;;;;;4999411;28;20538;-84
2023/02/03 07:42:40;;;;;;;9.30;2.77;;;9.30;99.90;;;;;;4999376;28;20451;-82
2023/02/03 07:45:08;;;;;;;8.20;2.53;;;9.30;99.90;;;;;;4999278;28;20454;-83
2023/02/03 07:47:36;;;;;;;10.20;2.70;;;9.30;99.90;;;;;;4999646;28;20481;-84
2023/02/03 07:50:03;;;;;;;11.45;3.20;;;9.30;99.90;;;;;;4998895;28;20823;-83
2023/02/03 07:52:30;;;;;;;8.83;2.97;;;9.50;99.90;;;;;;4999502;28;20674;-81
2023/02/03 07:54:56;;;;;;;5.40;2.37;;;9.40;99.90;;;;;;4998914;28;20461;-83
2023/02/03 07:57:23;;;;;;;6.50;2.60;;;9.30;99.90;;;;;;4998791;28;20485;-83
2023/02/03 07:59:50;;;;;;;7.00;2.97;;;9.30;99.90;;;;;;4999352;28;20473;-84
2023/02/03 08:02:18;;;;;;;6.63;2.50;;;9.30;99.90;;;;;;4999350;28;20464;-84
2023/02/03 08:04:46;;;;;;;5.00;2.30;;;9.30;99.90;;;;;;4998884;28;20461;-84
2023/02/03 08:07:15;;;;;;;12.90;2.63;;;9.30;99.90;;;;;;4999867;28;20454;-83
2023/02/03 08:09:42;;;;;;;5.33;2.63;;;9.30;99.90;;;;;;4999514;28;20454;-84
2023/02/03 08:12:09;;;;;;;5.70;2.13;;;9.30;99.90;;;;;;4999653;28;20461;-84
2023/02/03 08:14:35;;;;;;;5.80;2.40;;;9.30;99.90;;;;;;4999442;28;20456;-84
2023/02/03 08:17:02;;;;;;;8.07;2.50;;;9.30;99.90;;;;;;4999235;28;20486;-83
2023/02/03 08:19:29;;;;;;;12.07;3.03;;;9.30;99.90;;;;;;4999084;28;20485;-83
2023/02/03 08:21:58;;;;;;;9.23;2.30;;;9.30;99.90;;;;;;4999479;28;20454;-84
2023/02/03 08:24:24;;;;;;;9.63;2.37;;;9.30;99.90;;;;;;4998868;28;20458;-83
2023/02/03 08:26:53;;;;;;;7.43;2.77;;;9.30;99.90;;;;;;5004204;28;20451;-81
2023/02/03 08:29:20;;;;;;;6.73;2.70;;;9.30;99.90;;;;;;4999699;28;20478;-83
2023/02/03 08:31:46;;;;;;;10.77;3.10;;;9.30;99.90;;;;;;5002018;28;20469;-83
2023/02/03 08:34:13;;;;;;;8.80;3.03;;;9.30;99.90;;;;;;5002561;28;20462;-83
2023/02/03 08:36:40;;;;;;;6.77;3.00;;;9.40;99.90;;;;;;5002448;28;20558;-83
2023/02/03 08:39:08;;;;;;;12.93;2.60;;;9.50;99.90;;;;;;5002201;28;20470;-83
2023/02/03 08:41:35;;;;;;;8.93;2.20;;;9.40;99.90;;;;;;5002032;28;20450;-83
2023/02/03 08:44:02;;;;;;;4.03;1.93;;;9.50;99.90;;;;;;5001829;28;20457;-83
2023/02/03 08:46:28;;;;;;;5.07;2.40;;;9.50;99.90;;;;;;5002302;28;20454;-83
2023/02/03 08:48:56;;;;;;;6.80;2.33;;;9.50;99.90;;;;;;5002650;28;20478;-83
2023/02/03 08:51:23;;;;;;;4.43;1.60;;;9.50;99.90;;;;;;5002030;28;20504;-83
2023/02/03 08:53:51;;;;;;;4.30;2.17;;;9.40;99.90;;;;;;5001838;28;20481;-83
2023/02/03 08:56:19;;;;;;;5.40;1.80;;;9.50;99.90;;;;;;5001842;28;20477;-83
2023/02/03 08:58:46;;;;;;;4.33;1.97;;;9.50;99.90;;;;;;5001525;28;20476;-83
2023/02/03 09:01:15;;;;;;;12.43;2.37;;;9.50;99.90;;;;;;5002040;28;20458;-82
2023/02/03 09:03:42;;;;;;;7.10;2.40;;;9.50;99.90;;;;;;5001332;28;20465;-83
2023/02/03 09:06:11;;;;;;;6.23;2.87;;;9.40;99.90;;;;;;5001884;28;20458;-83
2023/02/03 09:08:38;;;;;;;5.13;2.70;;;9.40;99.90;;;;;;5002682;28;21008;-83
2023/02/03 09:11:08;;;;;;;7.30;2.83;;;9.40;99.90;;;;;;5002035;28;20528;-83
2023/02/03 09:13:37;;;;;;;9.17;2.90;;;9.30;99.90;;;;;;5001603;28;20454;-83
2023/02/03 09:16:05;;;;;;;11.93;3.50;;;9.20;99.90;;;;;;5001400;28;21062;-82
2023/02/03 09:18:32;;;;;;;6.80;3.20;;;9.30;99.90;;;;;;5001861;28;20473;-83
2023/02/03 09:21:02;;;;;;;7.30;3.30;;;9.30;99.90;;;;;;5002281;28;20461;-83
2023/02/03 09:23:31;;;;;;;5.50;3.50;;;9.30;99.90;;;;;;5001484;28;20458;-84
2023/02/03 09:26:02;;;;;;;11.33;4.87;;;9.20;99.90;;;;;;5001683;28;20474;-82
2023/02/03 09:28:29;;;;;;;9.90;6.90;;;9.20;99.90;;;;;;5000604;28;20466;-82
2023/02/03 09:31:01;;;;;;;14.73;13.83;;;9.20;99.90;;;;;;5001371;28;20458;-83
2023/02/03 09:33:28;;;;;;;13.30;12.30;;;9.10;99.90;;;;;;5000971;28;20458;-83
2023/02/03 09:35:55;;;;;;;14.47;13.47;;;9.10;99.90;;;;;;5001706;28;20852;-83
2023/02/03 09:38:22;;;;;;;21.20;19.57;;;8.90;99.90;;;;;;5000382;28;20826;-82
2023/02/03 09:40:54;;;;;;;26.73;25.23;;;8.90;99.90;;;;;;5000815;28;20453;-83
2023/02/03 09:43:32;;;;;;;49.10;46.93;;;8.90;99.90;;;;;;5001403;28;20454;-83
2023/02/03 09:46:07;;;;;;;25.23;24.03;;;8.90;99.90;;;;;;5001799;28;20444;-84
2023/02/03 09:48:41;;;;;;;47.97;45.93;;;8.90;99.90;;;;;;5002136;28;20469;-83
2023/02/03 09:51:19;;;;;;;82.63;79.40;;;8.90;99.90;;;;;;5001204;28;20461;-83
2023/02/03 09:53:52;;;;;;;163.33;157.70;;;8.80;99.90;;;;;;5001292;28;20462;-83
2023/02/03 09:56:27;;;;;;;89.43;85.83;;;8.90;99.90;;;;;;5001588;28;20469;-83
2023/02/03 09:58:54;;;;;;;93.60;90.23;;;8.70;99.90;;;;;;5001076;28;20470;-83
2023/02/03 10:01:25;;;;;;;164.03;157.43;;;8.70;99.90;;;;;;5001098;28;20465;-84
2023/02/03 10:03:58;;;;;;;121.80;117.40;;;8.60;99.90;;;;;;5001052;28;20455;-83
2023/02/03 10:06:32;;;;;;;184.23;177.67;;;8.60;99.90;;;;;;5001373;28;20461;-83
2023/02/03 10:09:17;;;;;;;233.03;224.93;;;8.60;99.90;;;;;;5001444;28;20478;-82
2023/02/03 10:12:07;;;;;;;310.23;300.30;;;8.60;99.90;;;;;;5000719;28;20537;-83
2023/02/03 10:14:47;;;;;;;205.30;198.57;;;8.60;99.90;;;;;;5000467;28;20461;-84
2023/02/03 10:17:30;;;;;;;298.10;288.20;;;8.60;99.90;;;;;;5000518;28;20492;-83
2023/02/03 10:20:02;;;;;;;379.13;366.03;;;8.60;99.90;;;;;;5000838;28;20469;-84
2023/02/03 10:22:34;;;;;;;253.77;245.57;;;8.50;99.90;;;;;;5000237;28;20465;-83
2023/02/03 10:25:05;;;;;;;317.57;307.23;;;8.60;99.90;;;;;;5000568;28;20441;-83
2023/02/03 10:27:34;;;;;;;383.90;370.70;;;8.50;99.90;;;;;;5000241;28;20452;-83
2023/02/03 10:30:06;;;;;;;451.87;435.77;;;8.40;99.90;;;;;;5000689;28;20967;-83
2023/02/03 10:32:36;;;;;;;680.10;639.75;;;8.50;99.90;;;;;;4999270;28;20463;-82
2023/02/03 10:35:04;;;;;;;604.43;576.97;;;8.60;99.90;;;;;;5000714;28;20277;-83
2023/02/03 10:37:34;;;;;;;591.37;564.43;;;8.60;99.90;;;;;;5001248;28;20485;-83
2023/02/03 10:40:02;;;;;;;586.53;560.83;;;8.70;99.90;;;;;;5000129;28;20925;-83
2023/02/03 10:43:46;;;;;;;583.53;558.03;;;8.70;99.90;;;;;;4999454;28;20817;-83
2023/02/03 10:45:17;;;;;;;527.23;505.53;;;8.70;99.90;;;;;;4999760;28;20982;-82
2023/02/03 10:47:50;;;;;;;565.40;542.00;;;8.80;99.90;;;;;;5000351;28;20678;-82
2023/02/03 10:50:19;;;;;;;523.50;503.23;;;8.80;99.90;;;;;;5000485;28;20454;-83
2023/02/03 10:52:47;;;;;;;529.13;509.57;;;8.80;99.90;;;;;;4999102;28;20454;-83
2023/02/03 10:55:30;;;;;;;469.90;453.43;;;8.80;99.90;;;;;;4999643;28;20450;-83
2023/02/03 10:57:57;;;;;;;413.63;399.33;;;8.90;99.90;;;;;;4999028;28;20489;-83
2023/02/03 11:00:29;;;;;;;253.17;244.60;;;8.90;99.90;;;;;;4999755;28;20928;-84
2023/02/03 11:03:07;;;;;;;254.40;245.30;;;9.00;99.90;;;;;;4998487;28;20458;-83
2023/02/03 11:05:35;;;;;;;220.37;212.40;;;9.00;99.90;;;;;;4999093;28;20458;-84
2023/02/03 11:08:02;;;;;;;262.90;253.27;;;9.10;99.90;;;;;;4999044;28;20478;-83
2023/02/03 11:10:34;;;;;;;236.23;227.50;;;9.20;99.90;;;;;;4999220;28;20504;-83
2023/02/03 11:13:18;;;;;;;259.23;249.53;;;9.20;99.90;;;;;;4999076;28;20442;-83
2023/02/03 11:15:52;;;;;;;236.20;227.97;;;9.20;99.90;;;;;;4998431;28;20472;-83
2023/02/03 11:18:43;;;;;;;215.00;207.40;;;9.30;99.90;;;;;;4999311;28;20536;-83
2023/02/03 11:21:16;;;;;;;194.87;188.07;;;9.40;99.90;;;;;;4999951;28;20458;-82
2023/02/03 11:23:51;;;;;;;302.80;291.50;;;9.40;99.90;;;;;;4997923;28;20456;-83
2023/02/03 11:26:22;;;;;;;256.40;247.43;;;9.40;99.90;;;;;;4998064;28;20199;-83
2023/02/03 11:28:51;;;;;;;220.90;213.40;;;9.40;99.90;;;;;;4998458;28;20478;-84
2023/02/03 11:31:24;;;;;;;191.00;184.30;;;9.50;99.90;;;;;;4998326;28;20456;-84
2023/02/03 11:33:55;;;;;;;167.67;161.80;;;9.50;99.90;;;;;;4998447;28;20453;-83
2023/02/03 11:36:25;;;;;;;165.93;159.83;;;9.50;99.90;;;;;;4998254;28;20976;-82
2023/02/03 11:38:51;;;;;;;149.80;144.30;;;9.50;99.90;;;;;;4998431;28;20462;-84
2023/02/03 11:41:20;;;;;;;149.50;144.20;;;9.50;99.90;;;;;;4998519;28;20446;-83
2023/02/03 11:43:47;;;;;;;148.57;142.87;;;9.50;99.90;;;;;;4998919;28;20500;-84
2023/02/03 11:46:15;;;;;;;144.07;137.90;;;9.50;99.90;;;;;;4998294;28;20461;-84
2023/02/03 11:48:57;;;;;;;144.30;138.97;;;9.50;99.90;;;;;;4997951;28;20466;-83
2023/02/03 11:51:33;;;;;;;126.23;121.47;;;9.50;99.90;;;;;;4998124;28;20458;-83
2023/02/03 11:54:15;;;;;;;129.43;124.23;;;9.50;99.90;;;;;;4998336;28;20454;-84
2023/02/03 11:57:05;;;;;;;129.30;124.37;;;9.50;99.90;;;;;;4998667;28;20442;-84
2023/02/03 11:59:46;;;;;;;125.73;120.63;;;9.50;99.90;;;;;;4998989;28;20492;-84
2023/02/03 12:02:47;;;;;;;108.13;103.77;;;9.50;99.90;;;;;;4998897;28;20452;-84
2023/02/03 12:05:32;;;;;;;109.00;103.70;;;9.50;99.90;;;;;;5002337;28;20918;-83
2023/02/03 12:08:19;;;;;;;95.50;91.40;;;9.50;99.90;;;;;;5002765;28;20465;-84
2023/02/03 12:11:00;;;;;;;94.40;90.30;;;9.50;99.90;;;;;;4998948;28;20933;-84
2023/02/03 12:13:46;;;;;;;100.57;96.43;;;9.60;99.90;;;;;;4982532;28;20482;-83
2023/02/03 12:16:27;;;;;;;109.40;104.80;;;9.60;99.90;;;;;;4982129;28;20450;-82
2023/02/03 12:19:06;;;;;;;113.67;109.37;;;9.60;99.90;;;;;;4983232;28;20486;-82
2023/02/03 12:21:46;;;;;;;107.80;103.00;;;9.70;99.90;;;;;;5002363;28;20449;-84
2023/02/03 12:24:28;;;;;;;94.97;90.80;;;9.70;99.90;;;;;;5001596;28;20457;-82
2023/02/03 12:27:04;;;;;;;93.77;89.77;;;9.60;99.90;;;;;;5000839;28;20849;-82
2023/02/03 12:29:37;;;;;;;88.17;84.27;;;9.60;99.90;;;;;;5001450;28;20480;-83
2023/02/03 12:32:11;;;;;;;93.80;89.27;;;9.70;99.90;;;;;;5001709;28;20477;-84
2023/02/03 12:34:45;;;;;;;99.10;94.20;;;9.70;99.90;;;;;;5001837;28;20461;-83
2023/02/03 12:37:18;;;;;;;102.00;96.97;;;9.70;99.90;;;;;;5001850;28;20465;-84
2023/02/03 12:39:49;;;;;;;86.07;82.47;;;9.70;99.90;;;;;;5001792;28;20940;-84
2023/02/03 12:42:21;;;;;;;81.87;77.50;;;9.70;99.90;;;;;;5001388;28;20955;-84
2023/02/03 12:44:52;;;;;;;77.83;74.17;;;9.70;99.90;;;;;;5001136;28;20477;-83
2023/02/03 12:47:28;;;;;;;75.83;72.40;;;9.70;99.90;;;;;;5001719;28;20803;-84
2023/02/03 12:49:58;;;;;;;73.27;69.70;;;9.70;99.90;;;;;;5001318;28;20884;-83
2023/02/03 12:52:32;;;;;;;76.40;72.80;;;9.70;99.90;;;;;;5001589;28;20442;-83
2023/02/03 12:55:08;;;;;;;70.80;67.60;;;9.70;99.90;;;;;;5001486;28;20445;-83
2023/02/03 12:57:39;;;;;;;67.33;63.63;;;9.70;99.90;;;;;;5001479;28;20481;-83